sensor_id;sensor_type;location;lat;lon;timestamp;pressure;altitude;pressure_sealevel;temperature;humidity
63281;BME280;49406;51.044;3.766;2023-02-01T00:02:26;102371.11;;;6.81;100.00
63281;BME280;49406;51.044;3.766;2023-02-01T00:05:00;102373.41;;;6.82;100.00
63281;BME280;49406;51.044;3.766;2023-02-01T00:07:35;102370.50;;;6.83;100.00
63281;BME280;49406;51.044;3.766;2023-02-01T00:10:11;102368.17;;;6.81;100.00
63281;BME280;49406;51.044;3.766;2023-02-01T00:12:46;102359.87;;;6.75;100.00
63281;BME280;49406;51.044;3.766;2023-02-01T00:15:21;102360.23;;;6.72;100.00
63281;BME280;49406;51.044;3.766;2023-02-01T00:17:56;102358.11;;;6.68;100.00
63281;BME280;49406;51.044;3.766;2023-02-01T00:20:31;102353.89;;;6.63;100.00
63281;BME280;49406;51.044;3.766;2023-02-01T00:23:06;102352.11;;;6.62;100.00
63281;BME280;49406;51.044;3.766;2023-02-01T00:25:41;102343.16;;;6.57;100.00
63281;BME280;49406;51.044;3.766;2023-02-01T00:28:16;102342.78;;;6.53;100.00
63281;BME280;49406;51.044;3.766;2023-02-01T00:30:58;102339.98;;;6.49;100.00
63281;BME280;49406;51.044;3.766;2023-02-01T00:33:34;102327.88;;;6.39;100.00
63281;BME280;49406;51.044;3.766;2023-02-01T00:36:09;102339.64;;;6.35;100.00
63281;BME280;49406;51.044;3.766;2023-02-01T00:38:44;102337.56;;;6.31;100.00
63281;BME280;49406;51.044;3.766;2023-02-01T00:41:20;102328.49;;;6.27;100.00
63281;BME280;49406;51.044;3.766;2023-02-01T00:43:55;102331.38;;;6.22;100.00
63281;BME280;49406;51.044;3.766;2023-02-01T00:46:30;102323.91;;;6.15;100.00
63281;BME280;49406;51.044;3.766;2023-02-01T00:49:04;102331.55;;;6.12;100.00
63281;BME280;49406;51.044;3.766;2023-02-01T00:51:40;102327.20;;;6.04;100.00
63281;BME280;49406;51.044;3.766;2023-02-01T00:54:18;102323.46;;;6.03;100.00
63281;BME280;49406;51.044;3.766;2023-02-01T00:56:52;102324.55;;;6.03;100.00
63281;BME280;49406;51.044;3.766;2023-02-01T00:59:27;102321.19;;;6.02;100.00
63281;BME280;49406;51.044;3.766;2023-02-01T01:02:01;102330.00;;;6.02;100.00
63281;BME280;49406;51.044;3.766;2023-02-01T01:04:36;102334.40;;;5.99;100.00
63281;BME280;49406;51.044;3.766;2023-02-01T01:07:11;102337.27;;;5.94;100.00
63281;BME280;49406;51.044;3.766;2023-02-01T01:09:46;102330.50;;;5.91;100.00
63281;BME280;49406;51.044;3.766;2023-02-01T01:12:21;102335.48;;;5.93;100.00
63281;BME280;49406;51.044;3.766;2023-02-01T01:14:55;102333.83;;;5.91;100.00
63281;BME280;49406;51.044;3.766;2023-02-01T01:17:32;102336.31;;;5.87;100.00
63281;BME280;49406;51.044;3.766;2023-02-01T01:20:08;102343.15;;;5.85;100.00
63281;BME280;49406;51.044;3.766;2023-02-01T01:22:43;102349.23;;;5.78;100.00
63281;BME280;49406;51.044;3.766;2023-02-01T01:25:18;102344.54;;;5.70;100.00
63281;BME280;49406;51.044;3.766;2023-02-01T01:27:53;102345.52;;;5.66;100.00
63281;BME280;49406;51.044;3.766;2023-02-01T01:30:27;102346.62;;;5.60;100.00
63281;BME280;49406;51.044;3.766;2023-02-01T01:33:02;102345.48;;;5.56;100.00
63281;BME280;49406;51.044;3.766;2023-02-01T01:35:37;102353.85;;;5.53;100.00
63281;BME280;49406;51.044;3.766;2023-02-01T01:38:12;102352.05;;;5.49;100.00
63281;BME280;49406;51.044;3.766;2023-02-01T01:40:47;102355.34;;;5.45;100.00
63281;BME280;49406;51.044;3.766;2023-02-01T01:43:23;102360.40;;;5.46;100.00
63281;BME280;49406;51.044;3.766;2023-02-01T01:45:58;102353.29;;;5.43;100.00
63281;BME280;49406;51.044;3.766;2023-02-01T01:48:33;102364.13;;;5.44;100.00
63281;BME280;49406;51.044;3.766;2023-02-01T01:51:10;102358.55;;;5.43;100.00
63281;BME280;49406;51.044;3.766;2023-02-01T01:53:50;102358.13;;;5.42;100.00
63281;BME280;49406;51.044;3.766;2023-02-01T01:56:29;102352.33;;;5.44;100.00
63281;BME280;49406;51.044;3.766;2023-02-01T01:59:05;102352.88;;;5.44;100.00
63281;BME280;49406;51.044;3.766;2023-02-01T02:01:41;102372.44;;;5.47;100.00
63281;BME280;49406;51.044;3.766;2023-02-01T02:04:16;102371.48;;;5.48;100.00
63281;BME280;49406;51.044;3.766;2023-02-01T02:06:54;102366.48;;;5.49;100.00
63281;BME280;49406;51.044;3.766;2023-02-01T02:09:30;102363.48;;;5.48;100.00
63281;BME280;49406;51.044;3.766;2023-02-01T02:12:05;102358.07;;;5.44;100.00
63281;BME280;49406;51.044;3.766;2023-02-01T02:14:40;102361.79;;;5.42;100.00
63281;BME280;49406;51.044;3.766;2023-02-01T02:17:31;102358.14;;;5.39;100.00
63281;BME280;49406;51.044;3.766;2023-02-01T02:20:30;102354.04;;;5.37;100.00
63281;BME280;49406;51.044;3.766;2023-02-01T02:26:26;102342.36;;;5.36;100.00
63281;BME280;49406;51.044;3.766;2023-02-01T02:35:47;102337.17;;;5.27;100.00
63281;BME280;49406;51.044;3.766;2023-02-01T02:38:32;102338.01;;;5.26;100.00
63281;BME280;49406;51.044;3.766;2023-02-01T02:41:15;102329.10;;;5.28;100.00
63281;BME280;49406;51.044;3.766;2023-02-01T02:44:11;102327.79;;;5.29;100.00
63281;BME280;49406;51.044;3.766;2023-02-01T02:47:11;102324.60;;;5.32;100.00
63281;BME280;49406;51.044;3.766;2023-02-01T02:50:10;102320.29;;;5.32;100.00
63281;BME280;49406;51.044;3.766;2023-02-01T02:53:12;102314.15;;;5.34;100.00
63281;BME280;49406;51.044;3.766;2023-02-01T02:56:06;102314.56;;;5.35;100.00
63281;BME280;49406;51.044;3.766;2023-02-01T02:59:00;102314.20;;;5.35;100.00
63281;BME280;49406;51.044;3.766;2023-02-01T03:01:54;102307.35;;;5.33;100.00
63281;BME280;49406;51.044;3.766;2023-02-01T03:04:46;102313.67;;;5.35;100.00
63281;BME280;49406;51.044;3.766;2023-02-01T03:10:33;102322.18;;;5.35;100.00
63281;BME280;49406;51.044;3.766;2023-02-01T03:13:13;102314.93;;;5.36;100.00
63281;BME280;49406;51.044;3.766;2023-02-01T03:15:53;102308.58;;;5.37;100.00
63281;BME280;49406;51.044;3.766;2023-02-01T03:18:35;102319.98;;;5.39;100.00
63281;BME280;49406;51.044;3.766;2023-02-01T03:21:14;102321.40;;;5.39;100.00
63281;BME280;49406;51.044;3.766;2023-02-01T03:23:51;102321.77;;;5.40;100.00
63281;BME280;49406;51.044;3.766;2023-02-01T03:26:30;102318.14;;;5.43;100.00
63281;BME280;49406;51.044;3.766;2023-02-01T03:29:11;102320.24;;;5.48;100.00
63281;BME280;49406;51.044;3.766;2023-02-01T03:31:47;102321.56;;;5.50;100.00
63281;BME280;49406;51.044;3.766;2023-02-01T03:34:23;102324.40;;;5.51;100.00
63281;BME280;49406;51.044;3.766;2023-02-01T03:37:00;102320.88;;;5.46;100.00
63281;BME280;49406;51.044;3.766;2023-02-01T03:39:39;102333.27;;;5.48;100.00
63281;BME280;49406;51.044;3.766;2023-02-01T03:42:20;102335.73;;;5.49;100.00
63281;BME280;49406;51.044;3.766;2023-02-01T03:45:01;102337.11;;;5.48;100.00
63281;BME280;49406;51.044;3.766;2023-02-01T03:47:41;102338.53;;;5.45;100.00
63281;BME280;49406;51.044;3.766;2023-02-01T03:50:20;102338.92;;;5.43;100.00
63281;BME280;49406;51.044;3.766;2023-02-01T03:53:01;102342.81;;;5.41;100.00
63281;BME280;49406;51.044;3.766;2023-02-01T03:55:37;102338.23;;;5.40;100.00
63281;BME280;49406;51.044;3.766;2023-02-01T03:58:15;102335.23;;;5.39;100.00
63281;BME280;49406;51.044;3.766;2023-02-01T04:00:53;102337.55;;;5.37;100.00
63281;BME280;49406;51.044;3.766;2023-02-01T04:03:29;102335.95;;;5.33;100.00
63281;BME280;49406;51.044;3.766;2023-02-01T04:06:05;102337.27;;;5.32;100.00
63281;BME280;49406;51.044;3.766;2023-02-01T04:08:40;102328.30;;;5.29;100.00
63281;BME280;49406;51.044;3.766;2023-02-01T04:11:15;102329.37;;;5.27;100.00
63281;BME280;49406;51.044;3.766;2023-02-01T04:13:50;102333.02;;;5.27;100.00
63281;BME280;49406;51.044;3.766;2023-02-01T04:16:24;102335.13;;;5.24;100.00
63281;BME280;49406;51.044;3.766;2023-02-01T04:18:59;102335.09;;;5.23;100.00
63281;BME280;49406;51.044;3.766;2023-02-01T04:21:34;102338.18;;;5.26;100.00
63281;BME280;49406;51.044;3.766;2023-02-01T04:24:09;102340.80;;;5.23;100.00
63281;BME280;49406;51.044;3.766;2023-02-01T04:26:44;102338.00;;;5.23;100.00
63281;BME280;49406;51.044;3.766;2023-02-01T04:29:19;102336.98;;;5.20;100.00
63281;BME280;49406;51.044;3.766;2023-02-01T04:31:53;102342.14;;;5.19;100.00
63281;BME280;49406;51.044;3.766;2023-02-01T04:34:28;102336.54;;;5.19;100.00
63281;BME280;49406;51.044;3.766;2023-02-01T04:37:02;102335.00;;;5.19;100.00
63281;BME280;49406;51.044;3.766;2023-02-01T04:39:37;102335.60;;;5.17;100.00
63281;BME280;49406;51.044;3.766;2023-02-01T04:42:12;102338.95;;;5.14;100.00
63281;BME280;49406;51.044;3.766;2023-02-01T04:44:46;102341.17;;;5.10;100.00
63281;BME280;49406;51.044;3.766;2023-02-01T04:47:21;102341.27;;;5.09;100.00
63281;BME280;49406;51.044;3.766;2023-02-01T04:49:56;102348.11;;;5.07;100.00
63281;BME280;49406;51.044;3.766;2023-02-01T04:52:30;102349.27;;;5.06;100.00
63281;BME280;49406;51.044;3.766;2023-02-01T04:55:06;102349.14;;;5.04;100.00
63281;BME280;49406;51.044;3.766;2023-02-01T04:57:41;102344.93;;;5.00;100.00
63281;BME280;49406;51.044;3.766;2023-02-01T05:00:17;102347.77;;;5.04;100.00
63281;BME280;49406;51.044;3.766;2023-02-01T05:02:52;102349.81;;;5.04;100.00
63281;BME280;49406;51.044;3.766;2023-02-01T05:05:27;102352.01;;;5.03;100.00
63281;BME280;49406;51.044;3.766;2023-02-01T05:08:02;102353.16;;;5.02;100.00
63281;BME280;49406;51.044;3.766;2023-02-01T05:10:37;102350.64;;;5.00;100.00
63281;BME280;49406;51.044;3.766;2023-02-01T05:13:12;102347.81;;;5.02;100.00
63281;BME280;49406;51.044;3.766;2023-02-01T05:16:05;102348.06;;;5.00;100.00
63281;BME280;49406;51.044;3.766;2023-02-01T05:18:39;102348.50;;;4.99;100.00
63281;BME280;49406;51.044;3.766;2023-02-01T05:21:14;102352.86;;;4.96;100.00
63281;BME280;49406;51.044;3.766;2023-02-01T05:23:49;102355.41;;;4.95;100.00
63281;BME280;49406;51.044;3.766;2023-02-01T05:26:42;102354.19;;;4.95;100.00
63281;BME280;49406;51.044;3.766;2023-02-01T05:29:17;102353.23;;;4.93;100.00
63281;BME280;49406;51.044;3.766;2023-02-01T05:31:52;102354.23;;;4.93;100.00
63281;BME280;49406;51.044;3.766;2023-02-01T05:34:27;102353.09;;;4.91;100.00
63281;BME280;49406;51.044;3.766;2023-02-01T05:37:02;102345.15;;;4.88;100.00
63281;BME280;49406;51.044;3.766;2023-02-01T05:39:36;102347.60;;;4.92;100.00
63281;BME280;49406;51.044;3.766;2023-02-01T05:42:11;102341.70;;;4.89;100.00
63281;BME280;49406;51.044;3.766;2023-02-01T05:44:46;102346.38;;;4.92;100.00
63281;BME280;49406;51.044;3.766;2023-02-01T05:47:20;102345.23;;;4.90;100.00
63281;BME280;49406;51.044;3.766;2023-02-01T05:49:55;102337.80;;;4.87;100.00
63281;BME280;49406;51.044;3.766;2023-02-01T05:52:30;102339.94;;;4.88;100.00
63281;BME280;49406;51.044;3.766;2023-02-01T05:55:06;102338.73;;;4.85;100.00
63281;BME280;49406;51.044;3.766;2023-02-01T05:57:41;102334.34;;;4.81;100.00
63281;BME280;49406;51.044;3.766;2023-02-01T06:00:17;102343.95;;;4.79;100.00
63281;BME280;49406;51.044;3.766;2023-02-01T06:02:52;102342.98;;;4.78;100.00
63281;BME280;49406;51.044;3.766;2023-02-01T06:05:26;102347.92;;;4.76;100.00
63281;BME280;49406;51.044;3.766;2023-02-01T06:08:01;102343.65;;;4.74;100.00
63281;BME280;49406;51.044;3.766;2023-02-01T06:10:36;102343.33;;;4.74;100.00
63281;BME280;49406;51.044;3.766;2023-02-01T06:13:10;102347.15;;;4.74;100.00
63281;BME280;49406;51.044;3.766;2023-02-01T06:15:45;102342.89;;;4.73;100.00
63281;BME280;49406;51.044;3.766;2023-02-01T06:18:20;102349.72;;;4.74;100.00
63281;BME280;49406;51.044;3.766;2023-02-01T06:20:56;102357.75;;;4.75;100.00
63281;BME280;49406;51.044;3.766;2023-02-01T06:23:31;102352.63;;;4.73;100.00
63281;BME280;49406;51.044;3.766;2023-02-01T06:26:07;102354.48;;;4.72;100.00
63281;BME280;49406;51.044;3.766;2023-02-01T06:28:42;102354.20;;;4.68;100.00
63281;BME280;49406;51.044;3.766;2023-02-01T06:31:16;102353.36;;;4.68;100.00
63281;BME280;49406;51.044;3.766;2023-02-01T06:33:52;102354.06;;;4.71;100.00
63281;BME280;49406;51.044;3.766;2023-02-01T06:36:27;102354.33;;;4.70;100.00
63281;BME280;49406;51.044;3.766;2023-02-01T06:39:02;102347.92;;;4.67;100.00
63281;BME280;49406;51.044;3.766;2023-02-01T06:41:37;102340.17;;;4.64;100.00
63281;BME280;49406;51.044;3.766;2023-02-01T06:44:12;102338.77;;;4.67;100.00
63281;BME280;49406;51.044;3.766;2023-02-01T06:46:46;102339.25;;;4.67;100.00
63281;BME280;49406;51.044;3.766;2023-02-01T06:49:21;102337.12;;;4.66;100.00
63281;BME280;49406;51.044;3.766;2023-02-01T06:51:56;102339.48;;;4.68;100.00
63281;BME280;49406;51.044;3.766;2023-02-01T06:54:33;102341.10;;;4.69;100.00
63281;BME280;49406;51.044;3.766;2023-02-01T06:57:10;102341.81;;;4.69;100.00
63281;BME280;49406;51.044;3.766;2023-02-01T06:59:45;102339.07;;;4.70;100.00
63281;BME280;49406;51.044;3.766;2023-02-01T07:02:19;102340.23;;;4.71;100.00
63281;BME280;49406;51.044;3.766;2023-02-01T07:04:54;102349.41;;;4.71;100.00
63281;BME280;49406;51.044;3.766;2023-02-01T07:07:29;102347.27;;;4.73;100.00
63281;BME280;49406;51.044;3.766;2023-02-01T07:10:04;102348.47;;;4.76;100.00
63281;BME280;49406;51.044;3.766;2023-02-01T07:12:39;102348.88;;;4.81;100.00
63281;BME280;49406;51.044;3.766;2023-02-01T07:15:13;102348.50;;;4.83;100.00
63281;BME280;49406;51.044;3.766;2023-02-01T07:17:48;102353.77;;;4.84;100.00
63281;BME280;49406;51.044;3.766;2023-02-01T07:20:23;102356.64;;;4.86;100.00
63281;BME280;49406;51.044;3.766;2023-02-01T07:22:58;102366.70;;;4.89;100.00
63281;BME280;49406;51.044;3.766;2023-02-01T07:25:35;102369.89;;;4.90;100.00
63281;BME280;49406;51.044;3.766;2023-02-01T07:28:10;102369.50;;;4.90;100.00
63281;BME280;49406;51.044;3.766;2023-02-01T07:30:45;102373.40;;;4.88;100.00
63281;BME280;49406;51.044;3.766;2023-02-01T07:33:24;102375.54;;;4.89;100.00
63281;BME280;49406;51.044;3.766;2023-02-01T07:36:02;102368.86;;;4.88;100.00
63281;BME280;49406;51.044;3.766;2023-02-01T07:38:37;102363.56;;;4.89;100.00
63281;BME280;49406;51.044;3.766;2023-02-01T07:41:12;102365.91;;;4.91;100.00
63281;BME280;49406;51.044;3.766;2023-02-01T07:43:47;102365.70;;;4.93;100.00
63281;BME280;49406;51.044;3.766;2023-02-01T07:46:24;102374.40;;;4.97;100.00
63281;BME280;49406;51.044;3.766;2023-02-01T07:48:58;102378.52;;;5.03;100.00
63281;BME280;49406;51.044;3.766;2023-02-01T07:51:33;102383.38;;;5.09;100.00
63281;BME280;49406;51.044;3.766;2023-02-01T07:54:06;102387.66;;;5.11;100.00
63281;BME280;49406;51.044;3.766;2023-02-01T07:56:41;102391.56;;;5.16;100.00
63281;BME280;49406;51.044;3.766;2023-02-01T07:59:15;102397.95;;;5.22;100.00
63281;BME280;49406;51.044;3.766;2023-02-01T08:01:50;102398.27;;;5.28;100.00
63281;BME280;49406;51.044;3.766;2023-02-01T08:04:25;102397.41;;;5.31;100.00
63281;BME280;49406;51.044;3.766;2023-02-01T08:06:59;102391.65;;;5.34;100.00
63281;BME280;49406;51.044;3.766;2023-02-01T08:09:34;102387.21;;;5.38;100.00
63281;BME280;49406;51.044;3.766;2023-02-01T08:12:09;102392.02;;;5.43;100.00
63281;BME280;49406;51.044;3.766;2023-02-01T08:14:43;102401.86;;;5.46;100.00
63281;BME280;49406;51.044;3.766;2023-02-01T08:17:18;102412.14;;;5.50;100.00
63281;BME280;49406;51.044;3.766;2023-02-01T08:19:51;102412.34;;;5.54;100.00
63281;BME280;49406;51.044;3.766;2023-02-01T08:22:26;102409.73;;;5.60;100.00
63281;BME280;49406;51.044;3.766;2023-02-01T08:25:00;102407.31;;;5.67;100.00
63281;BME280;49406;51.044;3.766;2023-02-01T08:27:35;102414.41;;;5.73;100.00
63281;BME280;49406;51.044;3.766;2023-02-01T08:30:12;102411.91;;;5.78;100.00
63281;BME280;49406;51.044;3.766;2023-02-01T08:32:46;102407.49;;;5.84;100.00
63281;BME280;49406;51.044;3.766;2023-02-01T08:35:21;102406.75;;;5.89;100.00
63281;BME280;49406;51.044;3.766;2023-02-01T08:37:56;102408.23;;;5.93;100.00
63281;BME280;49406;51.044;3.766;2023-02-01T08:40:31;102406.69;;;5.97;100.00
63281;BME280;49406;51.044;3.766;2023-02-01T08:43:05;102404.63;;;6.01;100.00
63281;BME280;49406;51.044;3.766;2023-02-01T08:45:41;102401.98;;;6.03;100.00
63281;BME280;49406;51.044;3.766;2023-02-01T08:48:15;102396.30;;;6.08;100.00
63281;BME280;49406;51.044;3.766;2023-02-01T08:50:50;102392.59;;;6.13;100.00
63281;BME280;49406;51.044;3.766;2023-02-01T08:53:24;102384.56;;;6.19;100.00
63281;BME280;49406;51.044;3.766;2023-02-01T08:56:00;102382.04;;;6.27;100.00
63281;BME280;49406;51.044;3.766;2023-02-01T08:58:34;102383.55;;;6.37;100.00
63281;BME280;49406;51.044;3.766;2023-02-01T09:01:11;102383.45;;;6.49;100.00
63281;BME280;49406;51.044;3.766;2023-02-01T09:03:46;102385.95;;;6.61;100.00
63281;BME280;49406;51.044;3.766;2023-02-01T09:06:21;102382.80;;;6.75;100.00
63281;BME280;49406;51.044;3.766;2023-02-01T09:08:55;102380.70;;;6.89;100.00
63281;BME280;49406;51.044;3.766;2023-02-01T09:11:30;102381.40;;;7.00;100.00
63281;BME280;49406;51.044;3.766;2023-02-01T09:14:05;102379.89;;;7.12;100.00
63281;BME280;49406;51.044;3.766;2023-02-01T09:16:40;102381.79;;;7.23;100.00
63281;BME280;49406;51.044;3.766;2023-02-01T09:19:15;102377.82;;;7.32;100.00
63281;BME280;49406;51.044;3.766;2023-02-01T09:21:50;102378.64;;;7.38;100.00
63281;BME280;49406;51.044;3.766;2023-02-01T09:24:25;102376.86;;;7.45;100.00
63281;BME280;49406;51.044;3.766;2023-02-01T09:26:59;102373.16;;;7.51;100.00
63281;BME280;49406;51.044;3.766;2023-02-01T09:29:34;102378.86;;;7.55;100.00
63281;BME280;49406;51.044;3.766;2023-02-01T09:32:09;102379.33;;;7.61;100.00
63281;BME280;49406;51.044;3.766;2023-02-01T09:34:44;102385.00;;;7.67;100.00
63281;BME280;49406;51.044;3.766;2023-02-01T09:37:18;102383.94;;;7.70;99.82
63281;BME280;49406;51.044;3.766;2023-02-01T09:39:53;102394.80;;;7.76;99.34
63281;BME280;49406;51.044;3.766;2023-02-01T09:42:43;102401.84;;;7.78;98.96
63281;BME280;49406;51.044;3.766;2023-02-01T09:45:26;102403.66;;;7.79;98.47
63281;BME280;49406;51.044;3.766;2023-02-01T09:48:12;102396.68;;;7.79;98.64
63281;BME280;49406;51.044;3.766;2023-02-01T09:50:52;102392.38;;;7.80;98.67
63281;BME280;49406;51.044;3.766;2023-02-01T09:53:30;102383.31;;;7.84;98.38
63281;BME280;49406;51.044;3.766;2023-02-01T09:56:10;102389.08;;;7.88;98.04
63281;BME280;49406;51.044;3.766;2023-02-01T09:58:49;102388.40;;;7.97;97.72
63281;BME280;49406;51.044;3.766;2023-02-01T10:01:27;102387.51;;;8.04;97.16
63281;BME280;49406;51.044;3.766;2023-02-01T10:04:05;102388.80;;;8.10;96.14
63281;BME280;49406;51.044;3.766;2023-02-01T10:06:51;102387.80;;;8.15;95.43
63281;BME280;49406;51.044;3.766;2023-02-01T10:09:46;102399.36;;;8.17;94.67
63281;BME280;49406;51.044;3.766;2023-02-01T10:12:49;102399.70;;;8.16;94.92
63281;BME280;49406;51.044;3.766;2023-02-01T10:15:32;102407.48;;;8.15;94.73
63281;BME280;49406;51.044;3.766;2023-02-01T10:21:23;102416.45;;;8.18;94.78
63281;BME280;49406;51.044;3.766;2023-02-01T10:24:20;102418.55;;;8.22;93.83
63281;BME280;49406;51.044;3.766;2023-02-01T10:27:01;102420.55;;;8.27;93.85
63281;BME280;49406;51.044;3.766;2023-02-01T10:29:39;102412.94;;;8.29;93.80
63281;BME280;49406;51.044;3.766;2023-02-01T10:32:16;102413.11;;;8.29;94.06
63281;BME280;49406;51.044;3.766;2023-02-01T10:34:55;102410.91;;;8.30;93.88
63281;BME280;49406;51.044;3.766;2023-02-01T10:37:32;102399.16;;;8.36;93.53
63281;BME280;49406;51.044;3.766;2023-02-01T10:40:17;102391.77;;;8.38;93.08
63281;BME280;49406;51.044;3.766;2023-02-01T10:42:56;102400.21;;;8.49;93.02
63281;BME280;49406;51.044;3.766;2023-02-01T10:45:33;102387.70;;;8.54;91.76
63281;BME280;49406;51.044;3.766;2023-02-01T10:48:09;102397.99;;;8.58;91.48
63281;BME280;49406;51.044;3.766;2023-02-01T10:50:48;102393.97;;;8.62;91.59
63281;BME280;49406;51.044;3.766;2023-02-01T10:53:31;102386.16;;;8.67;90.69
63281;BME280;49406;51.044;3.766;2023-02-01T10:56:10;102387.85;;;8.74;90.31
63281;BME280;49406;51.044;3.766;2023-02-01T10:58:46;102387.29;;;8.82;90.63
63281;BME280;49406;51.044;3.766;2023-02-01T11:01:24;102385.48;;;8.98;89.41
63281;BME280;49406;51.044;3.766;2023-02-01T11:04:04;102388.15;;;9.08;87.88
63281;BME280;49406;51.044;3.766;2023-02-01T11:06:41;102384.70;;;9.23;87.47
63281;BME280;49406;51.044;3.766;2023-02-01T11:09:21;102382.21;;;9.36;86.08
63281;BME280;49406;51.044;3.766;2023-02-01T11:12:00;102370.98;;;9.39;83.88
63281;BME280;49406;51.044;3.766;2023-02-01T11:14:39;102365.95;;;9.44;83.05
63281;BME280;49406;51.044;3.766;2023-02-01T11:17:27;102358.64;;;9.49;81.57
63281;BME280;49406;51.044;3.766;2023-02-01T11:20:05;102347.73;;;9.57;80.33
63281;BME280;49406;51.044;3.766;2023-02-01T11:22:47;102351.53;;;9.75;81.20
63281;BME280;49406;51.044;3.766;2023-02-01T11:25:22;102354.44;;;9.88;78.99
63281;BME280;49406;51.044;3.766;2023-02-01T11:27:58;102344.65;;;9.88;77.31
63281;BME280;49406;51.044;3.766;2023-02-01T11:30:37;102346.41;;;9.88;78.65
63281;BME280;49406;51.044;3.766;2023-02-01T11:33:16;102348.69;;;9.89;78.42
63281;BME280;49406;51.044;3.766;2023-02-01T11:35:53;102351.93;;;9.86;78.30
63281;BME280;49406;51.044;3.766;2023-02-01T11:38:31;102354.77;;;9.87;77.79
63281;BME280;49406;51.044;3.766;2023-02-01T11:41:20;102349.72;;;9.88;77.56
63281;BME280;49406;51.044;3.766;2023-02-01T11:43:57;102338.08;;;9.94;77.46
63281;BME280;49406;51.044;3.766;2023-02-01T11:46:34;102333.61;;;9.97;77.34
63281;BME280;49406;51.044;3.766;2023-02-01T11:49:22;102333.00;;;9.89;76.84
63281;BME280;49406;51.044;3.766;2023-02-01T11:52:06;102332.00;;;9.81;77.18
63281;BME280;49406;51.044;3.766;2023-02-01T11:54:56;102333.71;;;9.80;78.03
63281;BME280;49406;51.044;3.766;2023-02-01T11:57:46;102326.86;;;9.79;77.69
63281;BME280;49406;51.044;3.766;2023-02-01T12:00:39;102324.02;;;9.82;77.77
63281;BME280;49406;51.044;3.766;2023-02-01T12:03:37;102316.06;;;9.85;77.25
63281;BME280;49406;51.044;3.766;2023-02-01T12:06:23;102312.05;;;9.84;77.58
63281;BME280;49406;51.044;3.766;2023-02-01T12:09:13;102312.85;;;9.88;77.26
63281;BME280;49406;51.044;3.766;2023-02-01T12:11:59;102308.80;;;9.91;76.39
63281;BME280;49406;51.044;3.766;2023-02-01T12:14:56;102297.66;;;9.98;76.44
63281;BME280;49406;51.044;3.766;2023-02-01T12:17:59;102299.75;;;10.09;75.54
63281;BME280;49406;51.044;3.766;2023-02-01T12:20:55;102299.94;;;10.19;74.81
63281;BME280;49406;51.044;3.766;2023-02-01T12:23:45;102307.02;;;10.32;74.66
63281;BME280;49406;51.044;3.766;2023-02-01T12:26:38;102309.02;;;10.39;73.78
63281;BME280;49406;51.044;3.766;2023-02-01T12:29:25;102305.79;;;10.47;73.00
63281;BME280;49406;51.044;3.766;2023-02-01T12:32:15;102298.27;;;10.59;72.64
63281;BME280;49406;51.044;3.766;2023-02-01T12:35:16;102296.44;;;10.62;71.68
63281;BME280;49406;51.044;3.766;2023-02-01T12:38:09;102295.00;;;10.55;70.90
63281;BME280;49406;51.044;3.766;2023-02-01T12:41:01;102302.78;;;10.46;71.59
63281;BME280;49406;51.044;3.766;2023-02-01T12:43:42;102301.08;;;10.37;71.46
63281;BME280;49406;51.044;3.766;2023-02-01T12:46:23;102298.77;;;10.30;72.01
63281;BME280;49406;51.044;3.766;2023-02-01T12:49:04;102294.90;;;10.25;72.60
63281;BME280;49406;51.044;3.766;2023-02-01T12:51:41;102296.05;;;10.27;73.63
63281;BME280;49406;51.044;3.766;2023-02-01T12:54:21;102299.21;;;10.33;73.40
63281;BME280;49406;51.044;3.766;2023-02-01T12:57:01;102302.04;;;10.34;73.36
63281;BME280;49406;51.044;3.766;2023-02-01T12:59:42;102294.62;;;10.37;73.55
63281;BME280;49406;51.044;3.766;2023-02-01T13:02:22;102305.62;;;10.42;73.41
63281;BME280;49406;51.044;3.766;2023-02-01T13:05:03;102295.30;;;10.42;72.25
63281;BME280;49406;51.044;3.766;2023-02-01T13:07:43;102298.15;;;10.38;72.36
63281;BME280;49406;51.044;3.766;2023-02-01T13:10:27;102294.11;;;10.43;73.30
63281;BME280;49406;51.044;3.766;2023-02-01T13:13:10;102290.64;;;10.43;72.80
63281;BME280;49406;51.044;3.766;2023-02-01T13:15:49;102291.96;;;10.52;72.66
63281;BME280;49406;51.044;3.766;2023-02-01T13:18:38;102289.88;;;10.64;72.61
63281;BME280;49406;51.044;3.766;2023-02-01T13:21:18;102291.41;;;10.69;71.42
63281;BME280;49406;51.044;3.766;2023-02-01T13:23:56;102296.77;;;10.73;72.25
63281;BME280;49406;51.044;3.766;2023-02-01T13:26:31;102296.71;;;10.76;72.22
63281;BME280;49406;51.044;3.766;2023-02-01T13:29:08;102293.95;;;10.66;71.14
63281;BME280;49406;51.044;3.766;2023-02-01T13:31:57;102303.45;;;10.62;71.85
63281;BME280;49406;51.044;3.766;2023-02-01T13:38:05;102311.09;;;10.66;71.04
63281;BME280;49406;51.044;3.766;2023-02-01T13:40:45;102302.63;;;10.80;70.92
63281;BME280;49406;51.044;3.766;2023-02-01T13:43:25;102307.80;;;10.84;70.49
63281;BME280;49406;51.044;3.766;2023-02-01T13:46:06;102299.93;;;10.84;70.34
63281;BME280;49406;51.044;3.766;2023-02-01T13:48:48;102307.11;;;10.84;70.59
63281;BME280;49406;51.044;3.766;2023-02-01T13:51:35;102307.63;;;10.90;70.70
63281;BME280;49406;51.044;3.766;2023-02-01T13:54:26;102312.17;;;10.90;70.08
63281;BME280;49406;51.044;3.766;2023-02-01T13:57:03;102318.02;;;10.80;69.92
63281;BME280;49406;51.044;3.766;2023-02-01T14:00:22;102306.46;;;10.69;70.26
63281;BME280;49406;51.044;3.766;2023-02-01T14:03:10;102320.59;;;10.62;71.21
63281;BME280;49406;51.044;3.766;2023-02-01T14:06:14;102312.49;;;10.60;71.99
63281;BME280;49406;51.044;3.766;2023-02-01T14:09:13;102310.90;;;10.54;72.32
63281;BME280;49406;51.044;3.766;2023-02-01T14:11:51;102316.04;;;10.40;72.64
63281;BME280;49406;51.044;3.766;2023-02-01T14:14:47;102313.69;;;10.38;73.10